sensor_id;sensor_type;location;lat;lon;timestamp;pressure;altitude;pressure_sealevel;temperature;humidity
60373;BME280;46216;52.220;5.134;2023-01-28T00:01:14;103181.88;;;3.70;100.00
60373;BME280;46216;52.220;5.134;2023-01-28T00:03:40;103189.78;;;3.70;100.00
60373;BME280;46216;52.220;5.134;2023-01-28T00:06:13;103196.84;;;3.69;100.00
60373;BME280;46216;52.220;5.134;2023-01-28T00:08:39;103198.59;;;3.69;100.00
60373;BME280;46216;52.220;5.134;2023-01-28T00:11:06;103201.25;;;3.69;100.00
60373;BME280;46216;52.220;5.134;2023-01-28T00:13:32;103191.56;;;3.69;100.00
60373;BME280;46216;52.220;5.134;2023-01-28T00:16:03;103203.91;;;3.67;100.00
60373;BME280;46216;52.220;5.134;2023-01-28T00:18:30;103195.13;;;3.64;100.00
60373;BME280;46216;52.220;5.134;2023-01-28T00:20:56;103188.09;;;3.64;100.00
60373;BME280;46216;52.220;5.134;2023-01-28T00:23:23;103180.19;;;3.61;100.00
60373;BME280;46216;52.220;5.134;2023-01-28T00:25:48;103179.31;;;3.59;100.00
60373;BME280;46216;52.220;5.134;2023-01-28T00:28:14;103188.09;;;3.63;100.00
60373;BME280;46216;52.220;5.134;2023-01-28T00:30:39;103181.97;;;3.61;100.00
60373;BME280;46216;52.220;5.134;2023-01-28T00:33:04;103177.53;;;3.64;100.00
60373;BME280;46216;52.220;5.134;2023-01-28T00:35:30;103184.59;;;3.64;100.00
60373;BME280;46216;52.220;5.134;2023-01-28T00:37:55;103186.31;;;3.66;100.00
60373;BME280;46216;52.220;5.134;2023-01-28T00:40:20;103181.06;;;3.65;100.00
60373;BME280;46216;52.220;5.134;2023-01-28T00:42:46;103184.53;;;3.68;100.00
60373;BME280;46216;52.220;5.134;2023-01-28T00:45:11;103182.78;;;3.66;100.00
60373;BME280;46216;52.220;5.134;2023-01-28T00:47:37;103187.19;;;3.65;100.00
60373;BME280;46216;52.220;5.134;2023-01-28T00:50:03;103191.56;;;3.66;100.00
60373;BME280;46216;52.220;5.134;2023-01-28T00:52:28;103195.97;;;3.69;100.00
60373;BME280;46216;52.220;5.134;2023-01-28T00:54:54;103179.31;;;3.61;100.00
60373;BME280;46216;52.220;5.134;2023-01-28T00:57:21;103176.69;;;3.59;100.00
60373;BME280;46216;52.220;5.134;2023-01-28T00:59:47;103178.47;;;3.57;100.00
60373;BME280;46216;52.220;5.134;2023-01-28T01:02:12;103174.06;;;3.53;100.00
60373;BME280;46216;52.220;5.134;2023-01-28T01:04:39;103182.00;;;3.54;100.00
60373;BME280;46216;52.220;5.134;2023-01-28T01:07:05;103178.47;;;3.52;100.00
60373;BME280;46216;52.220;5.134;2023-01-28T01:09:30;103176.72;;;3.51;100.00
60373;BME280;46216;52.220;5.134;2023-01-28T01:11:56;103170.56;;;3.54;100.00
60373;BME280;46216;52.220;5.134;2023-01-28T01:14:21;103171.44;;;3.54;100.00
60373;BME280;46216;52.220;5.134;2023-01-28T01:16:46;103175.84;;;3.54;100.00
60373;BME280;46216;52.220;5.134;2023-01-28T01:19:12;103179.34;;;3.53;100.00
60373;BME280;46216;52.220;5.134;2023-01-28T01:21:38;103185.50;;;3.55;100.00
60373;BME280;46216;52.220;5.134;2023-01-28T01:24:03;103177.63;;;3.53;100.00
60373;BME280;46216;52.220;5.134;2023-01-28T01:26:28;103183.72;;;3.55;100.00
60373;BME280;46216;52.220;5.134;2023-01-28T01:28:54;103182.88;;;3.52;100.00
60373;BME280;46216;52.220;5.134;2023-01-28T01:31:21;103182.03;;;3.48;100.00
60373;BME280;46216;52.220;5.134;2023-01-28T01:33:48;103189.03;;;3.51;100.00
60373;BME280;46216;52.220;5.134;2023-01-28T01:36:15;103193.44;;;3.53;100.00
60373;BME280;46216;52.220;5.134;2023-01-28T01:38:41;103189.94;;;3.47;100.00
60373;BME280;46216;52.220;5.134;2023-01-28T01:41:07;103183.78;;;3.46;100.00
60373;BME280;46216;52.220;5.134;2023-01-28T01:43:53;103189.97;;;3.44;100.00
60373;BME280;46216;52.220;5.134;2023-01-28T01:49:11;103193.44;;;3.49;100.00
60373;BME280;46216;52.220;5.134;2023-01-28T01:51:39;103192.59;;;3.47;100.00
60373;BME280;46216;52.220;5.134;2023-01-28T01:54:06;103196.97;;;3.48;100.00
60373;BME280;46216;52.220;5.134;2023-01-28T01:56:35;103187.31;;;3.50;100.00
60373;BME280;46216;52.220;5.134;2023-01-28T01:59:02;103189.06;;;3.45;100.00
60373;BME280;46216;52.220;5.134;2023-01-28T02:01:30;103189.06;;;3.45;100.00
60373;BME280;46216;52.220;5.134;2023-01-28T02:04:03;103189.97;;;3.41;100.00
60373;BME280;46216;52.220;5.134;2023-01-28T02:06:30;103190.81;;;3.43;100.00
60373;BME280;46216;52.220;5.134;2023-01-28T02:08:56;103190.88;;;3.38;100.00
60373;BME280;46216;52.220;5.134;2023-01-28T02:11:24;103197.00;;;3.42;100.00
60373;BME280;46216;52.220;5.134;2023-01-28T02:13:53;103185.59;;;3.35;100.00
60373;BME280;46216;52.220;5.134;2023-01-28T02:16:20;103195.25;;;3.39;100.00
60373;BME280;46216;52.220;5.134;2023-01-28T02:18:46;103195.22;;;3.42;100.00
60373;BME280;46216;52.220;5.134;2023-01-28T02:21:26;103186.44;;;3.45;100.00
60373;BME280;46216;52.220;5.134;2023-01-28T02:32:11;103214.59;;;3.37;100.00
60373;BME280;46216;52.220;5.134;2023-01-28T02:35:15;103221.63;;;3.38;100.00
60373;BME280;46216;52.220;5.134;2023-01-28T02:37:53;103216.34;;;3.41;100.00
60373;BME280;46216;52.220;5.134;2023-01-28T02:40:41;103216.34;;;3.38;100.00
60373;BME280;46216;52.220;5.134;2023-01-28T02:46:09;103207.53;;;3.45;100.00
60373;BME280;46216;52.220;5.134;2023-01-28T02:48:54;103204.00;;;3.43;100.00
60373;BME280;46216;52.220;5.134;2023-01-28T02:51:31;103197.88;;;3.42;100.00
60373;BME280;46216;52.220;5.134;2023-01-28T02:54:19;103201.41;;;3.40;100.00
60373;BME280;46216;52.220;5.134;2023-01-28T02:56:56;103205.78;;;3.39;100.00
60373;BME280;46216;52.220;5.134;2023-01-28T02:59:27;103204.91;;;3.42;100.00
60373;BME280;46216;52.220;5.134;2023-01-28T03:02:14;103199.63;;;3.43;100.00
60373;BME280;46216;52.220;5.134;2023-01-28T03:05:02;103199.66;;;3.36;100.00
60373;BME280;46216;52.220;5.134;2023-01-28T03:07:33;103193.53;;;3.37;100.00
60373;BME280;46216;52.220;5.134;2023-01-28T03:10:00;103203.16;;;3.38;100.00
60373;BME280;46216;52.220;5.134;2023-01-28T03:12:30;103194.38;;;3.36;100.00
60373;BME280;46216;52.220;5.134;2023-01-28T03:15:17;103194.38;;;3.37;100.00
60373;BME280;46216;52.220;5.134;2023-01-28T03:23:56;103201.41;;;3.35;100.00
60373;BME280;46216;52.220;5.134;2023-01-28T03:26:53;103196.13;;;3.38;100.00
60373;BME280;46216;52.220;5.134;2023-01-28T03:29:40;103195.28;;;3.31;100.00
60373;BME280;46216;52.220;5.134;2023-01-28T03:32:26;103191.78;;;3.28;100.00
60373;BME280;46216;52.220;5.134;2023-01-28T03:35:13;103190.91;;;3.27;100.00
60373;BME280;46216;52.220;5.134;2023-01-28T03:37:59;103186.53;;;3.26;100.00
60373;BME280;46216;52.220;5.134;2023-01-28T03:40:25;103186.50;;;3.28;100.00
60373;BME280;46216;52.220;5.134;2023-01-28T03:42:51;103183.03;;;3.24;100.00
60373;BME280;46216;52.220;5.134;2023-01-28T03:45:18;103196.16;;;3.29;100.00
60373;BME280;46216;52.220;5.134;2023-01-28T03:47:45;103203.22;;;3.30;100.00
60373;BME280;46216;52.220;5.134;2023-01-28T03:50:11;103204.94;;;3.31;100.00
60373;BME280;46216;52.220;5.134;2023-01-28T03:52:37;103209.38;;;3.27;100.00
60373;BME280;46216;52.220;5.134;2023-01-28T03:55:02;103199.72;;;3.23;100.00
60373;BME280;46216;52.220;5.134;2023-01-28T03:57:37;103205.84;;;3.28;100.00
60373;BME280;46216;52.220;5.134;2023-01-28T04:00:03;103207.63;;;3.26;100.00
60373;BME280;46216;52.220;5.134;2023-01-28T04:02:29;103197.97;;;3.21;100.00
60373;BME280;46216;52.220;5.134;2023-01-28T04:04:54;103207.63;;;3.22;100.00
60373;BME280;46216;52.220;5.134;2023-01-28T04:07:20;103202.34;;;3.23;100.00
60373;BME280;46216;52.220;5.134;2023-01-28T04:09:46;103216.41;;;3.22;100.00
60373;BME280;46216;52.220;5.134;2023-01-28T04:12:11;103226.06;;;3.22;100.00
60373;BME280;46216;52.220;5.134;2023-01-28T04:14:36;103215.53;;;3.22;100.00
60373;BME280;46216;52.220;5.134;2023-01-28T04:17:04;103218.16;;;3.23;100.00
60373;BME280;46216;52.220;5.134;2023-01-28T04:19:31;103230.47;;;3.24;100.00
60373;BME280;46216;52.220;5.134;2023-01-28T04:22:03;103230.44;;;3.27;100.00
60373;BME280;46216;52.220;5.134;2023-01-28T04:24:28;103233.06;;;3.29;100.00
60373;BME280;46216;52.220;5.134;2023-01-28T04:26:53;103234.81;;;3.28;100.00
60373;BME280;46216;52.220;5.134;2023-01-28T04:29:19;103236.59;;;3.28;100.00
60373;BME280;46216;52.220;5.134;2023-01-28T04:31:44;103234.84;;;3.27;100.00
60373;BME280;46216;52.220;5.134;2023-01-28T04:34:09;103232.22;;;3.24;100.00
60373;BME280;46216;52.220;5.134;2023-01-28T04:36:35;103236.59;;;3.28;100.00
60373;BME280;46216;52.220;5.134;2023-01-28T04:39:00;103230.44;;;3.27;100.00
60373;BME280;46216;52.220;5.134;2023-01-28T04:41:26;103234.84;;;3.27;100.00
60373;BME280;46216;52.220;5.134;2023-01-28T04:43:51;103232.19;;;3.25;100.00
60373;BME280;46216;52.220;5.134;2023-01-28T04:46:16;103219.91;;;3.26;100.00
60373;BME280;46216;52.220;5.134;2023-01-28T04:48:41;103222.53;;;3.26;100.00
60373;BME280;46216;52.220;5.134;2023-01-28T04:51:07;103223.44;;;3.23;100.00
60373;BME280;46216;52.220;5.134;2023-01-28T04:53:33;103221.66;;;3.22;100.00
60373;BME280;46216;52.220;5.134;2023-01-28T04:55:59;103223.44;;;3.20;100.00
60373;BME280;46216;52.220;5.134;2023-01-28T04:58:24;103226.06;;;3.22;100.00
60373;BME280;46216;52.220;5.134;2023-01-28T05:00:57;103213.78;;;3.18;100.00
60373;BME280;46216;52.220;5.134;2023-01-28T05:03:23;103212.03;;;3.15;100.00
60373;BME280;46216;52.220;5.134;2023-01-28T05:05:49;103218.19;;;3.20;100.00
60373;BME280;46216;52.220;5.134;2023-01-28T05:08:15;103217.31;;;3.17;100.00
60373;BME280;46216;52.220;5.134;2023-01-28T05:10:40;103222.56;;;3.18;100.00
60373;BME280;46216;52.220;5.134;2023-01-28T05:13:06;103230.47;;;3.15;100.00
60373;BME280;46216;52.220;5.134;2023-01-28T05:15:31;103232.25;;;3.16;100.00
60373;BME280;46216;52.220;5.134;2023-01-28T05:17:56;103221.72;;;3.13;100.00
60373;BME280;46216;52.220;5.134;2023-01-28T05:20:22;103222.59;;;3.14;100.00
60373;BME280;46216;52.220;5.134;2023-01-28T05:22:47;103228.72;;;3.14;100.00
60373;BME280;46216;52.220;5.134;2023-01-28T05:25:12;103224.34;;;3.13;100.00
60373;BME280;46216;52.220;5.134;2023-01-28T05:27:38;103221.72;;;3.10;100.00
60373;BME280;46216;52.220;5.134;2023-01-28T05:30:04;103220.84;;;3.08;100.00
60373;BME280;46216;52.220;5.134;2023-01-28T05:32:30;103223.47;;;3.14;100.00
60373;BME280;46216;52.220;5.134;2023-01-28T05:34:56;103212.03;;;3.12;100.00
60373;BME280;46216;52.220;5.134;2023-01-28T05:37:21;103214.69;;;3.12;100.00
60373;BME280;46216;52.220;5.134;2023-01-28T05:39:46;103200.66;;;3.07;100.00
60373;BME280;46216;52.220;5.134;2023-01-28T05:42:14;103213.84;;;3.04;100.00
60373;BME280;46216;52.220;5.134;2023-01-28T05:44:40;103216.47;;;3.01;100.00
60373;BME280;46216;52.220;5.134;2023-01-28T05:47:06;103208.59;;;2.99;100.00
60373;BME280;46216;52.220;5.134;2023-01-28T05:49:31;103210.34;;;2.97;100.00
60373;BME280;46216;52.220;5.134;2023-01-28T05:51:57;103216.47;;;2.98;100.00
60373;BME280;46216;52.220;5.134;2023-01-28T05:54:22;103227.91;;;2.97;100.00
60373;BME280;46216;52.220;5.134;2023-01-28T05:56:47;103223.50;;;3.02;100.00
60373;BME280;46216;52.220;5.134;2023-01-28T05:59:13;103215.59;;;3.03;100.00
60373;BME280;46216;52.220;5.134;2023-01-28T06:01:38;103223.50;;;3.05;100.00
60373;BME280;46216;52.220;5.134;2023-01-28T06:04:04;103223.50;;;3.05;100.00
60373;BME280;46216;52.220;5.134;2023-01-28T06:06:29;103214.72;;;3.06;100.00
60373;BME280;46216;52.220;5.134;2023-01-28T06:08:55;103226.13;;;3.03;100.00
60373;BME280;46216;52.220;5.134;2023-01-28T06:11:20;103231.38;;;3.05;100.00
60373;BME280;46216;52.220;5.134;2023-01-28T06:13:46;103226.13;;;3.08;100.00
60373;BME280;46216;52.220;5.134;2023-01-28T06:16:11;103217.34;;;3.04;100.00
60373;BME280;46216;52.220;5.134;2023-01-28T06:18:37;103216.44;;;3.05;100.00
60373;BME280;46216;52.220;5.134;2023-01-28T06:21:02;103226.13;;;3.08;100.00
60373;BME280;46216;52.220;5.134;2023-01-28T06:23:27;103222.59;;;3.07;100.00
60373;BME280;46216;52.220;5.134;2023-01-28T06:25:56;103225.22;;;3.09;100.00
60373;BME280;46216;52.220;5.134;2023-01-28T06:28:22;103223.47;;;3.11;100.00
60373;BME280;46216;52.220;5.134;2023-01-28T06:30:49;103225.22;;;3.09;100.00
60373;BME280;46216;52.220;5.134;2023-01-28T06:33:16;103231.41;;;3.06;100.00
60373;BME280;46216;52.220;5.134;2023-01-28T06:35:42;103234.03;;;3.02;100.00
60373;BME280;46216;52.220;5.134;2023-01-28T06:38:08;103239.28;;;3.02;100.00
60373;BME280;46216;52.220;5.134;2023-01-28T06:40:33;103242.81;;;3.04;100.00
60373;BME280;46216;52.220;5.134;2023-01-28T06:42:59;103247.22;;;3.06;100.00
60373;BME280;46216;52.220;5.134;2023-01-28T06:45:24;103237.53;;;3.07;100.00
60373;BME280;46216;52.220;5.134;2023-01-28T06:47:50;103246.34;;;3.06;100.00
60373;BME280;46216;52.220;5.134;2023-01-28T06:50:16;103253.34;;;3.07;100.00
60373;BME280;46216;52.220;5.134;2023-01-28T06:52:41;103257.75;;;3.06;100.00
60373;BME280;46216;52.220;5.134;2023-01-28T06:55:07;103256.88;;;3.06;100.00
60373;BME280;46216;52.220;5.134;2023-01-28T06:57:32;103253.34;;;3.07;100.00
60373;BME280;46216;52.220;5.134;2023-01-28T06:59:57;103242.84;;;3.02;100.00
60373;BME280;46216;52.220;5.134;2023-01-28T07:02:23;103240.19;;;3.02;100.00
60373;BME280;46216;52.220;5.134;2023-01-28T07:04:48;103244.56;;;3.05;100.00
60373;BME280;46216;52.220;5.134;2023-01-28T07:07:13;103248.09;;;3.01;100.00
60373;BME280;46216;52.220;5.134;2023-01-28T07:09:39;103244.59;;;3.00;100.00
60373;BME280;46216;52.220;5.134;2023-01-28T07:12:04;103241.09;;;2.94;100.00
60373;BME280;46216;52.220;5.134;2023-01-28T07:14:30;103248.97;;;2.95;100.00
60373;BME280;46216;52.220;5.134;2023-01-28T07:16:56;103255.13;;;2.97;100.00
60373;BME280;46216;52.220;5.134;2023-01-28T07:19:21;103243.69;;;2.98;100.00
60373;BME280;46216;52.220;5.134;2023-01-28T07:21:46;103251.59;;;2.95;100.00
60373;BME280;46216;52.220;5.134;2023-01-28T07:24:12;103254.25;;;2.97;100.00
60373;BME280;46216;52.220;5.134;2023-01-28T07:26:40;103247.25;;;2.93;100.00
60373;BME280;46216;52.220;5.134;2023-01-28T07:29:07;103259.50;;;2.95;100.00
60373;BME280;46216;52.220;5.134;2023-01-28T07:31:32;103259.50;;;3.01;100.00
60373;BME280;46216;52.220;5.134;2023-01-28T07:33:58;103256.88;;;3.00;100.00
60373;BME280;46216;52.220;5.134;2023-01-28T07:36:23;103256.88;;;3.03;100.00
60373;BME280;46216;52.220;5.134;2023-01-28T07:38:48;103265.66;;;3.02;100.00
60373;BME280;46216;52.220;5.134;2023-01-28T07:41:14;103266.53;;;3.02;100.00
60373;BME280;46216;52.220;5.134;2023-01-28T07:43:39;103265.66;;;2.99;100.00
60373;BME280;46216;52.220;5.134;2023-01-28T07:46:04;103274.44;;;2.98;100.00
60373;BME280;46216;52.220;5.134;2023-01-28T07:48:30;103274.44;;;2.95;100.00
60373;BME280;46216;52.220;5.134;2023-01-28T07:50:58;103279.72;;;2.98;100.00
60373;BME280;46216;52.220;5.134;2023-01-28T07:53:24;103272.69;;;3.00;100.00
60373;BME280;46216;52.220;5.134;2023-01-28T07:55:49;103284.09;;;2.94;100.00
60373;BME280;46216;52.220;5.134;2023-01-28T07:58:15;103274.47;;;2.99;100.00
60373;BME280;46216;52.220;5.134;2023-01-28T08:00:40;103276.19;;;3.02;100.00
60373;BME280;46216;52.220;5.134;2023-01-28T08:03:11;103278.81;;;3.05;100.00
60373;BME280;46216;52.220;5.134;2023-01-28T08:05:40;103262.09;;;3.09;100.00
60373;BME280;46216;52.220;5.134;2023-01-28T08:08:08;103269.16;;;3.10;100.00
60373;BME280;46216;52.220;5.134;2023-01-28T08:10:34;103277.94;;;3.06;100.00
60373;BME280;46216;52.220;5.134;2023-01-28T08:12:59;103268.28;;;3.03;100.00
60373;BME280;46216;52.220;5.134;2023-01-28T08:15:25;103280.56;;;3.04;100.00
60373;BME280;46216;52.220;5.134;2023-01-28T08:17:53;103280.56;;;3.07;100.00
60373;BME280;46216;52.220;5.134;2023-01-28T08:20:20;103288.44;;;3.12;100.00
60373;BME280;46216;52.220;5.134;2023-01-28T08:22:45;103284.97;;;3.13;100.00
60373;BME280;46216;52.220;5.134;2023-01-28T08:25:10;103284.97;;;3.13;100.00
60373;BME280;46216;52.220;5.134;2023-01-28T08:27:36;103291.97;;;3.17;100.00
60373;BME280;46216;52.220;5.134;2023-01-28T08:30:01;103293.72;;;3.21;100.00
60373;BME280;46216;52.220;5.134;2023-01-28T08:32:28;103293.69;;;3.24;100.00
60373;BME280;46216;52.220;5.134;2023-01-28T08:34:54;103298.97;;;3.24;100.00
60373;BME280;46216;52.220;5.134;2023-01-28T08:37:19;103292.81;;;3.25;100.00
60373;BME280;46216;52.220;5.134;2023-01-28T08:39:44;103297.22;;;3.23;100.00
60373;BME280;46216;52.220;5.134;2023-01-28T08:42:10;103306.00;;;3.22;100.00
60373;BME280;46216;52.220;5.134;2023-01-28T08:44:35;103299.84;;;3.16;100.00
60373;BME280;46216;52.220;5.134;2023-01-28T08:47:00;103299.00;;;3.09;100.00
60373;BME280;46216;52.220;5.134;2023-01-28T08:49:25;103296.41;;;3.06;100.00
60373;BME280;46216;52.220;5.134;2023-01-28T08:51:51;103298.13;;;3.10;100.00
60373;BME280;46216;52.220;5.134;2023-01-28T08:54:16;103302.50;;;3.17;100.00
60373;BME280;46216;52.220;5.134;2023-01-28T08:56:42;103296.34;;;3.21;100.00
60373;BME280;46216;52.220;5.134;2023-01-28T08:59:10;103302.50;;;3.20;100.00
60373;BME280;46216;52.220;5.134;2023-01-28T09:01:35;103318.31;;;3.26;100.00
60373;BME280;46216;52.220;5.134;2023-01-28T09:04:01;103301.59;;;3.30;100.00
60373;BME280;46216;52.220;5.134;2023-01-28T09:06:27;103307.72;;;3.42;100.00
60373;BME280;46216;52.220;5.134;2023-01-28T09:08:56;103314.69;;;3.55;100.00
60373;BME280;46216;52.220;5.134;2023-01-28T09:11:21;103313.78;;;3.68;100.00
60373;BME280;46216;52.220;5.134;2023-01-28T09:13:47;103316.38;;;3.74;100.00
60373;BME280;46216;52.220;5.134;2023-01-28T09:16:12;103320.66;;;3.94;100.00
60373;BME280;46216;52.220;5.134;2023-01-28T09:18:37;103328.53;;;4.06;100.00
60373;BME280;46216;52.220;5.134;2023-01-28T09:21:04;103326.72;;;4.14;100.00
60373;BME280;46216;52.220;5.134;2023-01-28T09:23:30;103325.75;;;4.29;100.00
60373;BME280;46216;52.220;5.134;2023-01-28T09:25:59;103336.19;;;4.44;100.00
60373;BME280;46216;52.220;5.134;2023-01-28T09:28:25;103334.41;;;4.53;100.00
60373;BME280;46216;52.220;5.134;2023-01-28T09:30:50;103329.03;;;4.62;100.00
60373;BME280;46216;52.220;5.134;2023-01-28T09:33:15;103315.75;;;4.76;100.00
60373;BME280;46216;52.220;5.134;2023-01-28T09:35:41;103321.84;;;4.81;100.00
60373;BME280;46216;52.220;5.134;2023-01-28T09:38:06;103319.25;;;4.74;100.00
60373;BME280;46216;52.220;5.134;2023-01-28T09:40:35;103329.66;;;4.91;100.00
60373;BME280;46216;52.220;5.134;2023-01-28T09:45:55;103315.53;;;4.97;100.00
60373;BME280;46216;52.220;5.134;2023-01-28T09:48:27;103322.47;;;5.10;100.00
60373;BME280;46216;52.220;5.134;2023-01-28T09:50:57;103322.28;;;5.26;100.00
60373;BME280;46216;52.220;5.134;2023-01-28T09:53:27;103340.69;;;5.35;100.00
60373;BME280;46216;52.220;5.134;2023-01-28T09:55:57;103338.84;;;5.43;100.00
60373;BME280;46216;52.220;5.134;2023-01-28T09:58:24;103335.19;;;5.55;100.00
60373;BME280;46216;52.220;5.134;2023-01-28T10:00:58;103341.31;;;5.58;100.00
60373;BME280;46216;52.220;5.134;2023-01-28T10:03:39;103331.50;;;5.66;100.00
60373;BME280;46216;52.220;5.134;2023-01-28T10:06:16;103341.09;;;5.77;100.00
60373;BME280;46216;52.220;5.134;2023-01-28T10:16:51;103320.53;;;6.00;100.00
60373;BME280;46216;52.220;5.134;2023-01-28T10:19:23;103315.00;;;6.19;100.00
60373;BME280;46216;52.220;5.134;2023-01-28T10:22:04;103311.56;;;6.12;100.00
60373;BME280;46216;52.220;5.134;2023-01-28T10:24:44;103308.97;;;6.07;100.00
60373;BME280;46216;52.220;5.134;2023-01-28T10:27:15;103315.88;;;6.18;100.00
60373;BME280;46216;52.220;5.134;2023-01-28T10:29:40;103316.72;;;6.20;100.00
60373;BME280;46216;52.220;5.134;2023-01-28T10:32:20;103311.50;;;6.15;100.00
60373;BME280;46216;52.220;5.134;2023-01-28T10:34:46;103316.78;;;6.16;100.00
60373;BME280;46216;52.220;5.134;2023-01-28T10:37:13;103310.69;;;6.11;100.00
60373;BME280;46216;52.220;5.134;2023-01-28T10:39:39;103304.59;;;6.05;100.00
60373;BME280;46216;52.220;5.134;2023-01-28T10:42:35;103314.41;;;5.98;100.00
60373;BME280;46216;52.220;5.134;2023-01-28T10:48:24;103305.56;;;5.99;100.00
60373;BME280;46216;52.220;5.134;2023-01-28T10:50:52;103307.41;;;5.91;100.00
60373;BME280;46216;52.220;5.134;2023-01-28T10:53:36;103282.63;;;5.98;100.00
60373;BME280;46216;52.220;5.134;2023-01-28T10:56:04;103269.44;;;5.90;100.00
60373;BME280;46216;52.220;5.134;2023-01-28T10:58:35;103255.47;;;5.81;100.00
60373;BME280;46216;52.220;5.134;2023-01-28T11:01:04;103263.38;;;5.84;100.00
60373;BME280;46216;52.220;5.134;2023-01-28T11:03:30;103260.72;;;5.84;100.00
60373;BME280;46216;52.220;5.134;2023-01-28T11:05:56;103260.78;;;5.79;100.00
60373;BME280;46216;52.220;5.134;2023-01-28T11:08:24;103243.09;;;5.83;100.00
60373;BME280;46216;52.220;5.134;2023-01-28T11:10:51;103245.97;;;5.66;100.00
60373;BME280;46216;52.220;5.134;2023-01-28T11:13:20;103234.38;;;5.76;100.00
60373;BME280;46216;52.220;5.134;2023-01-28T11:15:47;103233.44;;;5.80;100.00
60373;BME280;46216;52.220;5.134;2023-01-28T11:18:38;103231.66;;;5.81;100.00
60373;BME280;46216;52.220;5.134;2023-01-28T11:21:05;103226.50;;;5.72;100.00
60373;BME280;46216;52.220;5.134;2023-01-28T11:23:35;103207.94;;;5.73;100.00
60373;BME280;46216;52.220;5.134;2023-01-28T11:26:08;103203.50;;;5.78;100.00
60373;BME280;46216;52.220;5.134;2023-01-28T11:28:40;103199.88;;;5.82;100.00
60373;BME280;46216;52.220;5.134;2023-01-28T11:31:07;103194.56;;;5.84;100.00
60373;BME280;46216;52.220;5.134;2023-01-28T11:33:37;103188.53;;;5.76;100.00
60373;BME280;46216;52.220;5.134;2023-01-28T11:38:52;103209.88;;;5.62;100.00
60373;BME280;46216;52.220;5.134;2023-01-28T11:41:28;103196.75;;;5.57;100.00
60373;BME280;46216;52.220;5.134;2023-01-28T11:43:54;103191.56;;;5.48;100.00
60373;BME280;46216;52.220;5.134;2023-01-28T11:51:57;103219.75;;;5.49;100.00
60373;BME280;46216;52.220;5.134;2023-01-28T11:54:52;103231.44;;;5.30;100.00
60373;BME280;46216;52.220;5.134;2023-01-28T11:57:35;103223.41;;;5.40;100.00
60373;BME280;46216;52.220;5.134;2023-01-28T12:00:21;103220.00;;;5.29;100.00
60373;BME280;46216;52.220;5.134;2023-01-28T12:02:54;103218.13;;;5.40;100.00
60373;BME280;46216;52.220;5.134;2023-01-28T12:06:33;103226.16;;;5.31;100.00
60373;BME280;46216;52.220;5.134;2023-01-28T12:11:22;103229.69;;;5.32;100.00
60373;BME280;46216;52.220;5.134;2023-01-28T12:14:24;103239.31;;;5.36;100.00
60373;BME280;46216;52.220;5.134;2023-01-28T12:19:54;103245.28;;;5.50;100.00
60373;BME280;46216;52.220;5.134;2023-01-28T12:22:38;103241.97;;;5.36;100.00
60373;BME280;46216;52.220;5.134;2023-01-28T12:25:18;103240.19;;;5.38;100.00
60373;BME280;46216;52.220;5.134;2023-01-28T12:28:14;103232.34;;;5.29;100.00
60373;BME280;46216;52.220;5.134;2023-01-28T12:42:29;103182.59;;;5.58;100.00
60373;BME280;46216;52.220;5.134;2023-01-28T12:45:03;103177.28;;;5.60;100.00
60373;BME280;46216;52.220;5.134;2023-01-28T12:47:38;103165.78;;;5.62;100.00
60373;BME280;46216;52.220;5.134;2023-01-28T12:50:15;103163.06;;;5.68;100.00
60373;BME280;46216;52.220;5.134;2023-01-28T12:52:49;103156.69;;;5.82;100.00
60373;BME280;46216;52.220;5.134;2023-01-28T12:55:38;103157.41;;;5.90;100.00
60373;BME280;46216;52.220;5.134;2023-01-28T12:58:06;103148.38;;;6.06;100.00
60373;BME280;46216;52.220;5.134;2023-01-28T13:00:39;103148.19;;;6.19;100.00
60373;BME280;46216;52.220;5.134;2023-01-28T13:03:14;103149.75;;;6.29;100.00
60373;BME280;46216;52.220;5.134;2023-01-28T13:05:49;103164.13;;;6.15;100.00
60373;BME280;46216;52.220;5.134;2023-01-28T13:08:26;103156.22;;;6.11;100.00
60373;BME280;46216;52.220;5.134;2023-01-28T13:10:53;103148.56;;;5.94;100.00
60373;BME280;46216;52.220;5.134;2023-01-28T13:13:28;103139.59;;;6.03;100.00
60373;BME280;46216;52.220;5.134;2023-01-28T13:15:55;103144.94;;;6.00;100.00
60373;BME280;46216;52.220;5.134;2023-01-28T13:20:59;103144.13;;;5.96;100.00
60373;BME280;46216;52.220;5.134;2023-01-28T13:23:43;103131.81;;;5.92;100.00
60373;BME280;46216;52.220;5.134;2023-01-28T13:28:40;103130.13;;;5.86;100.00
60373;BME280;46216;52.220;5.134;2023-01-28T13:31:09;103137.19;;;5.86;100.00
60373;BME280;46216;52.220;5.134;2023-01-28T13:33:45;103145.22;;;5.80;100.00
60373;BME280;46216;52.220;5.134;2023-01-28T13:38:44;103147.06;;;5.78;100.00
60373;BME280;46216;52.220;5.134;2023-01-28T13:41:10;103151.34;;;5.83;100.00
60373;BME280;46216;52.220;5.134;2023-01-28T13:43:38;103148.59;;;5.91;100.00
60373;BME280;46216;52.220;5.134;2023-01-28T13:46:08;103139.59;;;6.03;100.00
60373;BME280;46216;52.220;5.134;2023-01-28T13:48:48;103140.38;;;6.09;100.00
60373;BME280;46216;52.220;5.134;2023-01-28T13:51:23;103144.75;;;6.12;100.00
60373;BME280;46216;52.220;5.134;2023-01-28T13:57:02;103142.22;;;6.06;100.00
60373;BME280;46216;52.220;5.134;2023-01-28T13:59:53;103160.66;;;6.12;100.00
60373;BME280;46216;52.220;5.134;2023-01-28T14:05:18;103158.72;;;6.22;100.00
60373;BME280;46216;52.220;5.134;2023-01-28T14:07:52;103172.69;;;6.28;100.00
60373;BME280;46216;52.220;5.134;2023-01-28T14:16:32;103163.88;;;6.28;100.00
60373;BME280;46216;52.220;5.134;2023-01-28T14:19:03;103163.09;;;6.23;100.00
60373;BME280;46216;52.220;5.134;2023-01-28T14:21:32;103171.97;;;6.22;100.00